createdAt,value
2018-09-11T00:00:20.232Z,2.27
2018-09-11T00:04:24.035Z,2.50
2018-09-11T00:08:27.681Z,2.43
2018-09-11T00:12:31.295Z,2.30
2018-09-11T00:16:34.957Z,2.23
2018-09-11T00:20:38.621Z,2.10
2018-09-11T00:24:42.280Z,2.13
2018-09-11T00:28:45.958Z,2.37
2018-09-11T00:32:49.580Z,2.60
2018-09-11T00:36:53.355Z,2.20
2018-09-11T00:40:57.015Z,3.10
2018-09-11T00:45:00.680Z,2.80
2018-09-11T00:49:04.356Z,3.13
2018-09-11T00:53:07.984Z,3.07
2018-09-11T00:57:11.625Z,3.50
2018-09-11T01:01:15.267Z,3.63
2018-09-11T01:05:18.928Z,3.90
2018-09-11T01:09:23.508Z,3.40
2018-09-11T01:13:27.133Z,3.30
2018-09-11T01:17:30.769Z,3.47
2018-09-11T01:21:34.521Z,3.37
2018-09-11T01:25:38.180Z,3.40
2018-09-11T01:29:41.926Z,3.60
2018-09-11T01:33:45.575Z,2.87
2018-09-11T01:37:49.192Z,2.30
2018-09-11T01:41:52.872Z,2.80
2018-09-11T01:45:56.536Z,2.90
2018-09-11T01:50:00.186Z,2.67
2018-09-11T01:54:03.916Z,2.70
2018-09-11T01:58:07.583Z,2.23
2018-09-11T02:02:11.275Z,2.67
2018-09-11T02:06:14.953Z,2.67
2018-09-11T02:10:18.603Z,2.73
2018-09-11T02:14:22.268Z,3.40
2018-09-11T02:18:25.893Z,3.20
2018-09-11T02:22:29.544Z,3.13
2018-09-11T02:26:33.196Z,3.93
2018-09-11T02:30:36.876Z,3.90
2018-09-11T02:34:40.524Z,3.87
2018-09-11T02:38:44.225Z,3.97
2018-09-11T02:42:47.915Z,4.27
2018-09-11T02:46:51.576Z,4.40
2018-09-11T02:50:55.241Z,4.13
2018-09-11T02:54:58.975Z,4.40
2018-09-11T02:59:02.688Z,4.87
2018-09-11T03:03:06.375Z,4.00
2018-09-11T03:07:10.045Z,4.13
2018-09-11T03:11:13.703Z,3.67
2018-09-11T03:15:17.377Z,3.97
2018-09-11T03:19:21.041Z,4.27
2018-09-11T03:23:24.763Z,4.40
2018-09-11T03:27:28.426Z,4.77
2018-09-11T03:31:32.124Z,4.37
2018-09-11T03:35:35.840Z,4.47
2018-09-11T03:39:39.610Z,4.53
2018-09-11T03:43:43.287Z,4.20
2018-09-11T03:47:46.939Z,4.40
2018-09-11T03:51:50.584Z,5.17
2018-09-11T03:55:54.249Z,4.20
2018-09-11T03:59:57.898Z,4.67
2018-09-11T04:04:01.967Z,5.27
2018-09-11T04:08:05.679Z,5.20
2018-09-11T04:12:09.359Z,5.07
2018-09-11T04:16:13.012Z,5.33
2018-09-11T04:20:16.800Z,5.67
2018-09-11T04:24:20.429Z,5.63
2018-09-11T04:28:24.147Z,6.03
2018-09-11T04:32:27.815Z,6.03
2018-09-11T04:36:31.606Z,7.00
2018-09-11T04:40:35.178Z,8.90
2018-09-11T04:44:38.841Z,7.33
2018-09-11T04:48:44.208Z,6.83
2018-09-11T04:52:47.889Z,7.33
2018-09-11T04:56:51.547Z,6.03
2018-09-11T05:00:55.204Z,7.53
2018-09-11T05:04:58.835Z,6.73
2018-09-11T05:09:02.516Z,6.00
2018-09-11T05:13:06.260Z,6.43
2018-09-11T05:17:09.934Z,5.47
2018-09-11T05:21:13.591Z,5.97
2018-09-11T05:25:17.205Z,5.87
2018-09-11T05:29:20.875Z,5.23
2018-09-11T05:33:24.532Z,5.20
2018-09-11T05:37:28.163Z,4.80
2018-09-11T05:41:31.829Z,4.40
2018-09-11T05:45:35.461Z,4.33
2018-09-11T05:49:39.113Z,4.97
2018-09-11T05:53:42.806Z,4.57
2018-09-11T05:57:46.491Z,4.33
2018-09-11T06:01:50.220Z,5.20
2018-09-11T06:05:53.847Z,4.23
2018-09-11T06:09:57.564Z,4.53
2018-09-11T06:14:01.220Z,4.47
2018-09-11T06:18:04.906Z,4.03
2018-09-11T06:22:08.871Z,3.60
2018-09-11T06:26:12.548Z,3.63
2018-09-11T06:30:16.336Z,3.93
2018-09-11T06:34:19.984Z,4.07
2018-09-11T06:38:23.644Z,4.30
2018-09-11T06:42:27.312Z,4.03
2018-09-11T06:46:31.084Z,3.57
2018-09-11T06:50:34.727Z,3.60
2018-09-11T06:54:38.500Z,3.70
2018-09-11T06:58:42.290Z,3.90
2018-09-11T07:02:45.940Z,3.43
2018-09-11T07:06:49.608Z,3.60
2018-09-11T07:10:53.242Z,3.30
2018-09-11T07:14:56.930Z,3.20
2018-09-11T07:19:00.599Z,3.30
2018-09-11T07:23:04.364Z,3.40
2018-09-11T07:27:08.031Z,3.00
2018-09-11T07:31:11.764Z,3.23
2018-09-11T07:35:15.405Z,2.50
2018-09-11T07:39:19.184Z,2.93
2018-09-11T07:43:22.869Z,3.10
2018-09-11T07:47:26.530Z,3.13
2018-09-11T07:51:30.159Z,3.27
2018-09-11T07:55:33.831Z,3.53
2018-09-11T07:59:37.503Z,3.20
2018-09-11T08:03:41.177Z,3.40
2018-09-11T08:07:44.972Z,3.87
2018-09-11T08:11:48.643Z,3.63
2018-09-11T08:15:52.318Z,3.27
2018-09-11T08:19:56.242Z,3.27
2018-09-11T08:23:59.881Z,3.40
2018-09-11T08:28:03.574Z,3.63
2018-09-11T08:32:07.252Z,3.20
2018-09-11T08:36:11.020Z,3.63
2018-09-11T08:40:14.691Z,3.50
2018-09-11T08:44:18.360Z,4.37
2018-09-11T08:48:22.033Z,3.70
2018-09-11T08:52:25.738Z,3.70
2018-09-11T08:56:29.404Z,3.40
2018-09-11T09:00:33.081Z,3.17
2018-09-11T09:04:36.749Z,3.40
2018-09-11T09:08:40.430Z,3.30
2018-09-11T09:12:44.064Z,3.00
2018-09-11T09:16:47.829Z,3.07
2018-09-11T09:20:51.537Z,3.20
2018-09-11T09:24:55.206Z,3.27
2018-09-11T09:28:58.896Z,3.20
2018-09-11T09:33:02.537Z,2.97
2018-09-11T09:37:06.383Z,2.90
2018-09-11T09:41:10.052Z,2.30
2018-09-11T09:45:13.712Z,2.27
2018-09-11T09:49:17.392Z,3.13
2018-09-11T09:53:21.024Z,2.30
2018-09-11T09:57:24.683Z,2.30
2018-09-11T10:01:33.657Z,2.53
2018-09-11T10:05:37.349Z,1.83
2018-09-11T10:09:41.017Z,2.23
2018-09-11T10:13:44.653Z,2.27
2018-09-11T10:17:48.352Z,2.20
2018-09-11T10:21:52.157Z,2.00
2018-09-11T10:25:55.850Z,2.13
2018-09-11T10:29:59.565Z,2.10
2018-09-11T10:34:03.200Z,1.80
2018-09-11T10:38:06.881Z,2.43
2018-09-11T10:42:10.531Z,2.27
2018-09-11T10:46:14.285Z,2.07
2018-09-11T10:50:17.912Z,1.90
2018-09-11T10:54:21.567Z,2.03
2018-09-11T10:58:25.234Z,1.80
2018-09-11T11:02:28.926Z,2.40
2018-09-11T11:06:32.605Z,2.13
2018-09-11T11:10:36.305Z,1.83
2018-09-11T11:14:39.987Z,2.10
2018-09-11T11:18:43.671Z,2.23
2018-09-11T11:22:47.351Z,2.10
2018-09-11T11:26:51.112Z,1.57
2018-09-11T11:30:54.753Z,1.93
2018-09-11T11:34:58.419Z,1.70
2018-09-11T11:39:02.098Z,1.70
2018-09-11T11:43:05.958Z,1.70
2018-09-11T11:47:09.613Z,1.87
2018-09-11T11:51:13.320Z,1.60
2018-09-11T11:55:16.982Z,1.20
2018-09-11T11:59:20.662Z,2.00
2018-09-11T12:03:24.348Z,1.60
2018-09-11T12:07:28.008Z,2.00
2018-09-11T12:11:31.696Z,1.70
2018-09-11T12:15:35.348Z,1.50
2018-09-11T12:19:39.131Z,1.40
2018-09-11T12:23:42.848Z,1.23
2018-09-11T12:27:46.487Z,1.73
2018-09-11T12:31:50.216Z,1.67
2018-09-11T12:35:53.964Z,1.63
2018-09-11T12:39:57.684Z,1.37
2018-09-11T12:44:01.329Z,1.67
2018-09-11T12:48:05.456Z,1.40
2018-09-11T12:52:08.778Z,1.50
2018-09-11T12:56:12.450Z,1.53
2018-09-11T13:00:16.127Z,1.20
2018-09-11T13:04:19.805Z,1.40
2018-09-11T13:08:23.529Z,1.80
2018-09-11T13:12:27.247Z,1.50
2018-09-11T13:16:30.934Z,1.30
2018-09-11T13:20:34.621Z,1.30
2018-09-11T13:24:38.342Z,1.33
2018-09-11T13:28:42.041Z,1.00
2018-09-11T13:32:45.761Z,1.30
2018-09-11T13:36:49.432Z,1.10
2018-09-11T13:40:53.090Z,1.33
2018-09-11T13:44:56.715Z,1.17
2018-09-11T13:49:00.376Z,1.27
2018-09-11T13:53:04.054Z,1.40
2018-09-11T13:57:07.751Z,1.30
2018-09-11T14:01:11.397Z,1.20
2018-09-11T14:05:15.024Z,1.17
2018-09-11T14:09:18.764Z,1.00
2018-09-11T14:13:22.436Z,1.10
2018-09-11T14:17:26.129Z,1.10
2018-09-11T14:21:29.806Z,1.10
2018-09-11T14:25:33.429Z,1.30
2018-09-11T14:29:37.244Z,1.20
2018-09-11T14:33:40.896Z,1.37
2018-09-11T14:37:44.588Z,1.37
2018-09-11T14:41:48.262Z,1.20
2018-09-11T14:45:51.907Z,1.70
2018-09-11T14:49:55.595Z,1.13
2018-09-11T14:53:59.293Z,1.27
2018-09-11T14:58:02.966Z,1.40
2018-09-11T15:02:06.688Z,1.10
2018-09-11T15:06:10.316Z,1.20
2018-09-11T15:10:14.016Z,1.50
2018-09-11T15:14:17.681Z,1.60
2018-09-11T15:18:21.373Z,1.50
2018-09-11T15:22:25.041Z,1.20
2018-09-11T15:26:28.759Z,1.47
2018-09-11T15:30:32.476Z,1.17
2018-09-11T15:34:36.152Z,1.90
2018-09-11T15:38:39.908Z,1.30
2018-09-11T15:42:43.604Z,1.50
2018-09-11T15:46:47.322Z,1.30
2018-09-11T15:50:51.104Z,1.43
2018-09-11T15:54:54.761Z,1.20
2018-09-11T15:58:58.437Z,1.70
2018-09-11T16:03:02.114Z,1.20
2018-09-11T16:07:05.860Z,1.50
2018-09-11T16:11:09.582Z,1.53
2018-09-11T16:15:13.669Z,1.77
2018-09-11T16:19:17.335Z,1.50
2018-09-11T16:23:20.998Z,1.53
2018-09-11T16:27:24.624Z,1.70
2018-09-11T16:31:28.753Z,1.90
2018-09-11T16:35:32.429Z,1.60
2018-09-11T16:39:36.118Z,1.77
2018-09-11T16:43:39.774Z,1.70
2018-09-11T16:47:43.397Z,1.50
2018-09-11T16:51:47.068Z,1.53
2018-09-11T16:55:50.760Z,1.50
2018-09-11T16:59:54.428Z,1.67
2018-09-11T17:03:58.091Z,1.80
2018-09-11T17:08:01.786Z,1.93
2018-09-11T17:12:05.551Z,2.00
2018-09-11T17:16:09.661Z,1.87
2018-09-11T17:20:13.443Z,1.40
2018-09-11T17:24:17.144Z,2.03
2018-09-11T17:28:20.765Z,1.67
2018-09-11T17:32:24.483Z,1.33
2018-09-11T17:36:28.152Z,1.70
2018-09-11T17:40:31.821Z,1.60
2018-09-11T17:44:35.505Z,1.80
2018-09-11T17:48:39.315Z,1.90
2018-09-11T17:52:43.041Z,1.97
2018-09-11T17:56:46.688Z,1.70
2018-09-11T18:00:50.470Z,1.70
2018-09-11T18:04:54.129Z,1.80
2018-09-11T18:08:57.993Z,1.67
2018-09-11T18:13:01.628Z,2.10
2018-09-11T18:17:05.412Z,1.80
2018-09-11T18:21:09.096Z,1.90
2018-09-11T18:25:12.800Z,2.07
2018-09-11T18:29:16.509Z,1.73
2018-09-11T18:33:20.192Z,2.20
2018-09-11T18:37:23.913Z,1.63
2018-09-11T18:41:27.540Z,1.70
2018-09-11T18:45:31.185Z,2.17
2018-09-11T18:49:34.894Z,1.80
2018-09-11T18:53:38.561Z,2.10
2018-09-11T18:57:42.355Z,2.10
2018-09-11T19:01:45.940Z,1.90
2018-09-11T19:05:49.628Z,1.70
2018-09-11T19:09:53.297Z,2.10
2018-09-11T19:13:56.974Z,2.10
2018-09-11T19:18:00.621Z,1.77
2018-09-11T19:22:04.306Z,1.80
2018-09-11T19:26:07.978Z,1.80
2018-09-11T19:30:12.205Z,1.80
2018-09-11T19:34:15.988Z,2.20
2018-09-11T19:38:19.559Z,1.97
2018-09-11T19:42:23.368Z,2.30
2018-09-11T19:46:26.925Z,1.90
2018-09-11T19:50:30.595Z,1.80
2018-09-11T19:54:34.277Z,1.77
2018-09-11T19:58:37.979Z,1.90
2018-09-11T20:02:41.657Z,2.17
2018-09-11T20:06:45.333Z,1.87
2018-09-11T20:10:49.046Z,1.83
2018-09-11T20:14:52.703Z,1.93
2018-09-11T20:18:56.425Z,1.90
2018-09-11T20:23:00.076Z,2.30
2018-09-11T20:27:03.789Z,2.40
2018-09-11T20:31:07.496Z,2.07
2018-09-11T20:35:11.199Z,2.07
2018-09-11T20:39:15.266Z,2.00
2018-09-11T20:43:18.924Z,2.07
2018-09-11T20:47:22.625Z,2.23
2018-09-11T20:51:26.249Z,2.00
2018-09-11T20:55:29.914Z,2.07
2018-09-11T20:59:33.608Z,1.93
